Accueil
METAR-TAF:

METAR-TAF

Aéroports :

Milan, Italie

Aéroport de Milan Malpensa

latitude: 45-37N, longitude: 008-44E, altitude: 234 m

Observation

Le bulletin a été fait il y a 29 minutes, à 08:50 UTC
Vent 3 kt de direction variable
Température 26°C
Humidité 61%
Pression 1015 hPa
Visibilité 10 km ou plus
pas de nuages en-dessous de 1500 mètres et pas de cumulonimbus.

METAR: LIMC 190850Z VRB03KT CAVOK 26/18 Q1015 NOSIG

Heure: 11:19 (09:19 UTC)

Prévision

Le bulletin a été fait il y a 4 heures et 19 minutes, à 05:00 UTC
Prévision valable du 19 à 06 UTC au 20 à 12 UTC
Vent 5 kt de direction variable
Visibilité 10 km ou plus
Nuages épars à une hauteur de 6000 ft
Temporairement
du 19 à 15 UTC au 19 à 24 UTC
orage, pluie

TAF: LIMC 190500Z 1906/2012 VRB05KT 9999 SCT060 TEMPO 1915/1924 TSRA

Observations et prévisions météorologiques de plus de 4000 aéroports (messages METAR et TAF).

Les stations disponibles sont représentées par des disques jaunes et rouges sur la carte.

Passer la souris dessus pour voir le nom de la station.

Cliquer dessus pour voir les observations et prévisions météorologiques.

Pour changer de carte: cliquez sur les boutons verts avec une croix noire pour zoomer, sur le bouton vert avec un tiret pour effectuer un zoom arrière, ou sur les flèches vertes pour les cartes adjacentes.


METAR-TAF: